Lilongwe, Malawi
Current Conditions -  °F | °C
As of 11:00 AM on Tuesday 21 Oct 2014 (Local Time) from FWKI Reporting Station
Few Clouds Few Clouds  
Wind Chill: 81°   Ceiling: Unl
Heat Index: 81°   Visibility: 6mi
Dew Point: 45°   Wind: 12mph
Humidity: 28%   Direction: 100°E
Pressure: 30.18"   Gusts: NA
Location:  13.97°S, 33.8°E
Report Text: FWKI 210900Z 10010KT 9999 FEW035 27/07 Q1022 NOSIG
Loading
Personal Weather Stations






























Interactive Weather Map New forecast layout! Learn more

10-Day Weather Forecast

Advertisements
Track Severe Weather on mobile